Time;durP1;ratioP1;P1;durP2;ratioP2;P2;SDS_P1;SDS_P2;PMS_P1;PMS_P2;Temp;Humidity;BMP_temperature;BMP_pressure;BME280_temperature;BME280_humidity;BME280_pressure;Samples;Min_cycle;Max_cycle;Signal;HPM_P1;HPM_P2
2022/03/05 00:00:06;;;;;;;9.60;6.57;;;0.80;99.90;;;;;;5093474;28;20032;-62
2022/03/05 00:02:32;;;;;;;13.35;6.90;;;0.80;99.90;;;;;;5093207;28;20040;-62
2022/03/05 00:04:58;;;;;;;10.18;7.03;;;0.80;99.90;;;;;;5093499;28;20032;-62
2022/03/05 00:07:23;;;;;;;10.48;6.93;;;0.80;99.90;;;;;;5093497;28;20032;-62
2022/03/05 00:09:49;;;;;;;9.82;6.60;;;0.80;99.90;;;;;;5093145;28;20517;-62
2022/03/05 00:12:14;;;;;;;10.35;7.25;;;0.80;99.90;;;;;;5093094;28;20036;-62
2022/03/05 00:14:40;;;;;;;9.32;6.55;;;0.70;99.90;;;;;;5093057;28;20051;-62
2022/03/05 00:17:07;;;;;;;9.52;6.70;;;0.70;99.90;;;;;;5093160;28;20047;-62
2022/03/05 00:19:32;;;;;;;12.02;7.03;;;0.70;99.90;;;;;;5093341;28;20131;-62
2022/03/05 00:22:01;;;;;;;11.55;6.78;;;0.70;99.90;;;;;;5092805;28;20181;-63
2022/03/05 00:24:27;;;;;;;10.73;6.77;;;0.70;99.90;;;;;;5092969;28;20458;-62
2022/03/05 00:26:53;;;;;;;11.52;7.65;;;0.70;99.90;;;;;;5092966;28;20288;-62
2022/03/05 00:29:19;;;;;;;11.02;6.68;;;0.70;99.90;;;;;;5092854;28;20478;-62
2022/03/05 00:31:44;;;;;;;13.52;6.90;;;0.70;99.90;;;;;;5091747;28;20444;-62
2022/03/05 00:34:10;;;;;;;9.75;7.20;;;0.70;99.90;;;;;;5091105;28;20087;-62
2022/03/05 00:36:37;;;;;;;9.77;7.13;;;0.60;99.90;;;;;;5092736;28;20048;-62
2022/03/05 00:39:04;;;;;;;10.65;7.05;;;0.60;99.90;;;;;;5093073;28;20044;-62
2022/03/05 00:41:29;;;;;;;9.60;6.72;;;0.60;99.90;;;;;;5092614;28;20106;-62
2022/03/05 00:43:55;;;;;;;10.50;6.88;;;0.60;99.90;;;;;;5091598;28;20048;-62
2022/03/05 00:46:20;;;;;;;10.18;6.47;;;0.50;99.90;;;;;;5092754;28;20043;-62
2022/03/05 00:48:46;;;;;;;10.70;6.72;;;0.60;99.90;;;;;;5092955;28;20040;-62
2022/03/05 00:51:12;;;;;;;12.02;7.15;;;0.60;99.90;;;;;;5092500;28;20067;-62
2022/03/05 00:53:37;;;;;;;10.98;7.03;;;0.50;99.90;;;;;;5092600;28;20477;-62
2022/03/05 00:56:03;;;;;;;12.07;6.90;;;0.50;99.90;;;;;;5092431;28;20079;-62
2022/03/05 00:58:29;;;;;;;9.98;7.28;;;0.50;99.90;;;;;;5092480;28;20037;-62
2022/03/05 01:00:55;;;;;;;11.60;6.75;;;0.50;99.90;;;;;;5092060;28;20043;-62
2022/03/05 01:03:22;;;;;;;8.52;6.30;;;0.50;99.90;;;;;;5092585;28;20101;-62
2022/03/05 01:05:47;;;;;;;10.65;6.70;;;0.50;99.90;;;;;;5090950;28;20075;-62
2022/03/05 01:08:13;;;;;;;10.77;7.03;;;0.50;99.90;;;;;;5092247;28;20076;-62
2022/03/05 01:10:39;;;;;;;12.40;6.95;;;0.50;99.90;;;;;;5092197;28;20606;-62
2022/03/05 01:13:05;;;;;;;10.93;7.30;;;0.40;99.90;;;;;;5092190;28;20043;-62
2022/03/05 01:15:30;;;;;;;12.93;7.65;;;0.40;99.90;;;;;;5092069;28;20478;-62
2022/03/05 01:17:56;;;;;;;12.65;7.47;;;0.40;99.90;;;;;;5092142;28;20124;-62
2022/03/05 01:20:21;;;;;;;12.55;8.13;;;0.40;99.90;;;;;;5091859;28;20119;-62
2022/03/05 01:22:47;;;;;;;14.13;7.65;;;0.40;99.90;;;;;;5091329;28;20059;-62
2022/03/05 01:25:13;;;;;;;12.32;8.00;;;0.40;99.90;;;;;;5091922;28;20062;-62
2022/03/05 01:27:38;;;;;;;11.50;7.00;;;0.30;99.90;;;;;;5091985;28;20478;-62
2022/03/05 01:30:04;;;;;;;11.73;7.57;;;0.40;99.90;;;;;;5092121;28;20036;-62
2022/03/05 01:32:30;;;;;;;12.43;8.07;;;0.40;99.90;;;;;;5091732;28;20032;-62
2022/03/05 01:34:56;;;;;;;16.15;7.82;;;0.30;99.90;;;;;;5091784;28;20492;-62
2022/03/05 01:37:21;;;;;;;12.30;8.30;;;0.30;99.90;;;;;;5091838;28;20036;-62
2022/03/05 01:39:47;;;;;;;11.38;7.80;;;0.30;99.90;;;;;;5091850;28;20509;-62
2022/03/05 01:42:13;;;;;;;12.00;7.60;;;0.30;99.90;;;;;;5091729;28;20036;-62
2022/03/05 01:44:38;;;;;;;12.13;8.10;;;0.30;99.90;;;;;;5091640;28;20047;-62
2022/03/05 01:47:05;;;;;;;13.30;8.48;;;0.30;99.90;;;;;;5091583;28;20047;-62
2022/03/05 01:49:31;;;;;;;15.68;8.13;;;0.30;99.90;;;;;;5091648;28;20044;-62
2022/03/05 01:51:57;;;;;;;14.32;8.63;;;0.30;99.90;;;;;;5091793;28;20043;-62
2022/03/05 01:54:23;;;;;;;13.20;8.32;;;0.30;99.90;;;;;;5091723;28;20048;-62
2022/03/05 01:56:49;;;;;;;11.43;8.18;;;0.30;99.90;;;;;;5091694;28;20048;-62
2022/03/05 01:59:15;;;;;;;13.43;8.10;;;0.30;99.90;;;;;;5091518;28;20036;-62
2022/03/05 02:01:41;;;;;;;14.18;8.50;;;0.30;99.90;;;;;;5091730;28;20466;-62
2022/03/05 02:04:07;;;;;;;12.57;7.40;;;0.20;99.90;;;;;;5091715;28;20094;-62
2022/03/05 02:06:34;;;;;;;13.90;8.57;;;0.30;99.90;;;;;;5091392;28;20535;-62
2022/03/05 02:09:00;;;;;;;13.70;8.00;;;0.20;99.90;;;;;;5090239;28;20044;-62
2022/03/05 02:11:26;;;;;;;12.25;7.70;;;0.20;99.90;;;;;;5091398;28;20040;-62
2022/03/05 02:13:53;;;;;;;12.60;7.68;;;0.20;99.90;;;;;;5073367;28;20076;-62
2022/03/05 02:16:20;;;;;;;14.90;7.88;;;0.20;99.90;;;;;;5091670;28;20032;-62
2022/03/05 02:18:48;;;;;;;12.05;7.97;;;0.20;99.90;;;;;;5091548;28;20444;-62
2022/03/05 02:21:14;;;;;;;12.05;7.55;;;0.20;99.90;;;;;;5091116;28;20036;-62
2022/03/05 02:23:40;;;;;;;14.50;7.80;;;0.20;99.90;;;;;;5091481;28;20135;-62
2022/03/05 02:26:06;;;;;;;12.10;8.43;;;0.20;99.90;;;;;;5091506;28;20115;-62
2022/03/05 02:28:33;;;;;;;10.18;7.60;;;0.20;99.90;;;;;;5091540;28;20097;-62
2022/03/05 02:30:59;;;;;;;15.15;8.18;;;0.10;99.90;;;;;;5091597;28;20035;-62
2022/03/05 02:33:25;;;;;;;13.13;7.15;;;0.10;99.90;;;;;;5091654;28;20588;-62
2022/03/05 02:35:51;;;;;;;12.43;7.72;;;0.10;99.90;;;;;;5094405;28;20039;-62
2022/03/05 02:38:19;;;;;;;12.65;7.40;;;0.10;99.90;;;;;;5095074;28;20093;-62
2022/03/05 02:40:46;;;;;;;12.90;7.47;;;0.10;99.90;;;;;;5094989;28;20036;-62
2022/03/05 02:43:13;;;;;;;10.90;6.90;;;0.10;99.90;;;;;;5094933;28;20394;-62
2022/03/05 02:45:39;;;;;;;12.55;7.45;;;0.10;99.90;;;;;;5095163;28;20036;-62
2022/03/05 02:48:08;;;;;;;11.90;7.47;;;0.10;99.90;;;;;;5094925;28;20493;-62
2022/03/05 02:50:34;;;;;;;12.02;7.40;;;0.10;99.90;;;;;;5095144;28;20059;-62
2022/03/05 02:53:00;;;;;;;12.85;8.50;;;0.10;99.90;;;;;;5094803;28;20485;-62
2022/03/05 02:55:26;;;;;;;10.52;7.30;;;0.00;99.90;;;;;;5094692;28;20389;-62
2022/03/05 02:57:52;;;;;;;12.93;8.00;;;0.10;99.90;;;;;;5094679;28;20174;-62
2022/03/05 03:00:18;;;;;;;13.35;7.13;;;0.00;99.90;;;;;;5094749;28;20126;-62
2022/03/05 03:02:47;;;;;;;12.85;7.38;;;0.10;99.90;;;;;;5094664;28;20040;-62
2022/03/05 03:05:13;;;;;;;11.98;7.40;;;0.00;99.90;;;;;;5094637;28;20043;-62
2022/03/05 03:07:39;;;;;;;13.95;8.27;;;0.00;99.90;;;;;;5094555;28;20036;-62
2022/03/05 03:10:06;;;;;;;10.32;7.55;;;0.00;99.90;;;;;;5094299;28;20047;-62
2022/03/05 03:12:31;;;;;;;12.02;7.35;;;0.00;99.90;;;;;;5094313;28;20481;-62
2022/03/05 03:14:57;;;;;;;11.30;7.30;;;0.00;99.90;;;;;;5094598;28;20051;-62
2022/03/05 03:17:23;;;;;;;14.45;7.97;;;0.00;99.90;;;;;;5094452;28;20040;-62
2022/03/05 03:19:49;;;;;;;11.88;7.90;;;0.00;99.90;;;;;;5094196;28;20036;-62
2022/03/05 03:22:15;;;;;;;12.05;7.15;;;0.00;99.90;;;;;;5094132;28;20390;-63
2022/03/05 03:24:42;;;;;;;12.38;7.78;;;0.00;99.90;;;;;;5094001;28;20040;-62
2022/03/05 03:27:08;;;;;;;14.40;7.57;;;-0.10;99.90;;;;;;5094322;28;20036;-62
2022/03/05 03:29:34;;;;;;;11.00;7.50;;;-0.10;99.90;;;;;;5094204;28;20119;-62
2022/03/05 03:32:00;;;;;;;13.75;8.35;;;-0.10;99.90;;;;;;5094195;28;20127;-62
2022/03/05 03:34:26;;;;;;;9.25;6.70;;;-0.10;99.90;;;;;;5094000;28;20075;-62
2022/03/05 03:36:51;;;;;;;11.85;7.78;;;-0.20;99.90;;;;;;5093897;28;20455;-62
2022/03/05 03:39:17;;;;;;;14.35;8.27;;;-0.20;99.90;;;;;;5093702;28;20039;-62
2022/03/05 03:41:43;;;;;;;12.13;7.65;;;-0.20;99.90;;;;;;5094031;28;20082;-62
2022/03/05 03:44:09;;;;;;;15.35;8.00;;;-0.20;99.90;;;;;;5094182;28;20044;-62
2022/03/05 03:46:35;;;;;;;10.98;7.57;;;-0.30;99.90;;;;;;5093550;28;20553;-62
2022/03/05 03:49:01;;;;;;;14.68;7.50;;;-0.20;99.90;;;;;;5093846;28;20032;-62
2022/03/05 03:51:26;;;;;;;12.45;7.97;;;-0.20;99.90;;;;;;5093668;28;20474;-62
2022/03/05 03:53:52;;;;;;;10.68;7.28;;;-0.30;99.90;;;;;;5091945;28;20390;-62
2022/03/05 03:56:18;;;;;;;11.95;8.38;;;-0.30;99.90;;;;;;5091821;28;20044;-62
2022/03/05 03:58:44;;;;;;;14.05;8.50;;;-0.30;99.90;;;;;;5093700;28;20036;-62
2022/03/05 04:01:10;;;;;;;9.38;6.75;;;-0.30;99.90;;;;;;5093444;28;20052;-62
2022/03/05 04:03:35;;;;;;;11.02;7.65;;;-0.40;99.90;;;;;;5093466;28;20040;-62
2022/03/05 04:06:01;;;;;;;11.85;7.30;;;-0.40;99.90;;;;;;5093384;28;20032;-62
2022/03/05 04:08:42;;;;;;;12.50;7.35;;;-0.40;99.90;;;;;;5093335;28;20032;-63
2022/03/05 04:11:13;;;;;;;11.57;6.60;;;-0.40;99.90;;;;;;5093430;28;20043;-63
2022/03/05 04:13:39;;;;;;;15.25;7.35;;;-0.50;99.90;;;;;;5093391;28;20040;-63
2022/03/05 04:16:05;;;;;;;10.88;7.10;;;-0.50;99.90;;;;;;5093666;28;20075;-62
2022/03/05 04:18:32;;;;;;;10.68;7.05;;;-0.50;99.90;;;;;;5093219;28;20142;-63
2022/03/05 04:20:58;;;;;;;16.08;7.30;;;-0.40;99.90;;;;;;5091966;28;20071;-63
2022/03/05 04:23:23;;;;;;;10.63;6.78;;;-0.40;99.90;;;;;;5092664;28;20474;-63
2022/03/05 04:25:49;;;;;;;9.73;6.75;;;-0.40;99.90;;;;;;5093137;28;20482;-62
2022/03/05 04:28:15;;;;;;;11.73;7.30;;;-0.50;99.90;;;;;;5093133;28;20043;-62
2022/03/05 04:30:42;;;;;;;13.05;7.43;;;-0.40;99.90;;;;;;5093161;28;20052;-62
2022/03/05 04:33:07;;;;;;;11.10;6.95;;;-0.50;99.90;;;;;;5093073;28;20039;-62
2022/03/05 04:35:33;;;;;;;14.70;7.22;;;-0.40;99.90;;;;;;5092712;28;20516;-62
2022/03/05 04:37:59;;;;;;;11.63;7.07;;;-0.50;99.90;;;;;;5092617;28;20044;-62
2022/03/05 04:40:24;;;;;;;13.05;7.60;;;-0.50;99.90;;;;;;5092945;28;20054;-62
2022/03/05 04:42:50;;;;;;;12.27;6.43;;;-0.50;99.90;;;;;;5092624;28;20393;-62
2022/03/05 04:45:16;;;;;;;10.85;6.82;;;-0.50;99.90;;;;;;5092698;28;20036;-62
2022/03/05 04:47:42;;;;;;;8.70;6.25;;;-0.50;99.90;;;;;;5092662;28;20099;-62
2022/03/05 04:50:09;;;;;;;13.65;6.75;;;-0.50;99.90;;;;;;5092353;28;20093;-62
2022/03/05 04:52:35;;;;;;;9.80;6.88;;;-0.60;99.90;;;;;;5092730;28;20063;-62
2022/03/05 04:55:03;;;;;;;11.88;6.75;;;-0.60;99.90;;;;;;5092331;28;20397;-62
2022/03/05 04:57:28;;;;;;;11.05;7.20;;;-0.60;99.90;;;;;;5091886;28;20040;-62
2022/03/05 04:59:54;;;;;;;10.57;6.95;;;-0.60;99.90;;;;;;5091949;28;20085;-62
2022/03/05 05:02:20;;;;;;;11.68;6.60;;;-0.60;99.90;;;;;;5092296;28;20481;-62
2022/03/05 05:04:46;;;;;;;12.48;6.55;;;-0.60;99.90;;;;;;5092097;28;20119;-62
2022/03/05 05:07:12;;;;;;;12.57;6.28;;;-0.60;99.90;;;;;;5092546;28;20444;-62
2022/03/05 05:09:40;;;;;;;11.02;6.18;;;-0.60;99.90;;;;;;5091990;28;20028;-62
2022/03/05 05:12:06;;;;;;;9.80;6.55;;;-0.60;99.90;;;;;;5092298;28;20044;-62
2022/03/05 05:14:32;;;;;;;12.05;6.75;;;-0.70;99.90;;;;;;5090281;28;20082;-62
2022/03/05 05:16:58;;;;;;;11.10;6.57;;;-0.70;99.90;;;;;;5092078;28;20040;-62
2022/03/05 05:19:30;;;;;;;11.02;6.53;;;-0.70;99.90;;;;;;5092053;28;20032;-62
2022/03/05 05:22:01;;;;;;;11.40;6.30;;;-0.70;99.90;;;;;;5091926;28;20131;-62
2022/03/05 05:24:29;;;;;;;9.73;6.20;;;-0.70;99.90;;;;;;5091973;28;20038;-62
2022/03/05 05:26:56;;;;;;;11.88;6.68;;;-0.60;99.90;;;;;;5092036;28;20435;-62
2022/03/05 05:29:21;;;;;;;10.43;6.97;;;-0.70;99.90;;;;;;5091907;28;20039;-62
2022/03/05 05:31:48;;;;;;;10.13;7.78;;;-0.70;99.90;;;;;;5091843;28;20036;-62
2022/03/05 05:34:14;;;;;;;9.25;6.32;;;-0.70;99.90;;;;;;5091887;28;20052;-62
2022/03/05 05:36:40;;;;;;;11.57;6.18;;;-0.70;99.90;;;;;;5092032;28;20165;-62
2022/03/05 05:39:06;;;;;;;10.35;6.88;;;-0.70;99.90;;;;;;5090416;28;20054;-62
2022/03/05 05:41:32;;;;;;;10.00;6.68;;;-0.70;99.90;;;;;;5090434;28;20040;-62
2022/03/05 05:43:58;;;;;;;10.02;6.70;;;-0.70;99.90;;;;;;5091804;28;20553;-62
2022/03/05 05:46:23;;;;;;;9.90;6.45;;;-0.70;99.90;;;;;;5073091;28;20135;-62
2022/03/05 05:48:49;;;;;;;10.18;6.78;;;-0.80;99.90;;;;;;5091963;28;20089;-62
2022/03/05 05:51:15;;;;;;;10.55;6.72;;;-0.80;99.90;;;;;;5091835;28;20161;-62
2022/03/05 05:53:41;;;;;;;11.30;6.68;;;-0.80;99.90;;;;;;5090552;28;20482;-62
2022/03/05 05:56:06;;;;;;;10.18;7.10;;;-0.80;99.90;;;;;;5091801;28;20065;-62
2022/03/05 05:58:33;;;;;;;11.15;6.72;;;-0.90;99.90;;;;;;5091883;28;20054;-62
2022/03/05 06:00:58;;;;;;;11.82;7.10;;;-0.80;99.90;;;;;;5091736;28;20051;-62
2022/03/05 06:03:24;;;;;;;11.80;7.10;;;-0.80;99.90;;;;;;5091748;28;20044;-62
2022/03/05 06:05:50;;;;;;;10.25;7.07;;;-0.80;99.90;;;;;;5091686;28;20073;-62
2022/03/05 06:08:15;;;;;;;12.88;7.03;;;-0.80;99.90;;;;;;5091519;28;20047;-62
2022/03/05 06:10:41;;;;;;;15.25;6.65;;;-0.80;99.90;;;;;;5094668;28;20174;-62
2022/03/05 06:13:07;;;;;;;12.15;7.25;;;-0.80;99.90;;;;;;5095528;28;20050;-62
2022/03/05 06:15:32;;;;;;;9.85;6.45;;;-0.80;99.90;;;;;;5095434;28;20398;-62
2022/03/05 06:17:58;;;;;;;11.40;7.15;;;-0.80;99.90;;;;;;5095465;28;20445;-62
2022/03/05 06:20:24;;;;;;;12.50;6.68;;;-0.80;99.90;;;;;;5095381;28;20039;-62
2022/03/05 06:22:50;;;;;;;11.30;5.97;;;-0.80;99.90;;;;;;5095228;28;20052;-62
2022/03/05 06:25:19;;;;;;;11.98;6.85;;;-0.80;99.90;;;;;;5095428;28;20371;-62
2022/03/05 06:27:45;;;;;;;10.60;6.47;;;-0.80;99.90;;;;;;5094159;28;20386;-62
2022/03/05 06:30:12;;;;;;;11.60;6.30;;;-0.80;99.90;;;;;;5095130;28;20035;-62
2022/03/05 06:32:38;;;;;;;12.00;6.88;;;-0.80;99.90;;;;;;5095395;28;20028;-62
2022/03/05 06:35:05;;;;;;;10.88;6.97;;;-0.80;99.90;;;;;;5095363;28;20393;-62
2022/03/05 06:37:31;;;;;;;9.70;6.75;;;-0.70;99.90;;;;;;5095119;28;20474;-62
2022/03/05 06:39:57;;;;;;;10.52;6.95;;;-0.70;99.90;;;;;;5095138;28;20043;-62
2022/03/05 06:42:23;;;;;;;14.30;6.50;;;-0.70;99.90;;;;;;5077019;28;20085;-62
2022/03/05 06:44:49;;;;;;;10.07;6.15;;;-0.60;99.90;;;;;;5094769;28;20047;-62
2022/03/05 06:47:16;;;;;;;12.18;6.85;;;-0.50;99.90;;;;;;5095194;28;20036;-62
2022/03/05 06:49:42;;;;;;;12.55;6.82;;;-0.50;99.90;;;;;;5094771;28;20036;-62
2022/03/05 06:52:08;;;;;;;13.32;7.72;;;-0.40;99.90;;;;;;5093873;28;20096;-62
2022/03/05 06:54:33;;;;;;;12.20;7.05;;;-0.40;99.90;;;;;;5094861;28;20097;-62
2022/03/05 06:56:59;;;;;;;11.88;7.32;;;-0.40;99.90;;;;;;5094922;28;20492;-62
2022/03/05 06:59:25;;;;;;;12.45;7.65;;;-0.30;99.90;;;;;;5093431;28;20036;-63
2022/03/05 07:01:50;;;;;;;15.25;8.45;;;-0.30;99.90;;;;;;5094723;28;20432;-62
2022/03/05 07:04:16;;;;;;;14.35;7.97;;;-0.20;99.90;;;;;;5094738;28;20043;-62
2022/03/05 07:06:42;;;;;;;12.77;8.02;;;-0.10;99.90;;;;;;5094449;28;20123;-63
2022/03/05 07:09:07;;;;;;;13.85;7.57;;;0.00;99.90;;;;;;5093286;28;20115;-63
2022/03/05 07:11:33;;;;;;;11.45;7.82;;;0.10;99.90;;;;;;5093184;28;20032;-63
2022/03/05 07:13:59;;;;;;;13.48;7.18;;;0.10;99.90;;;;;;5094293;28;20051;-63
2022/03/05 07:16:25;;;;;;;10.27;6.93;;;0.30;99.90;;;;;;5094495;28;20074;-63
2022/03/05 07:18:51;;;;;;;10.25;7.25;;;0.40;99.90;;;;;;5094407;28;20066;-63
2022/03/05 07:21:17;;;;;;;11.50;7.35;;;0.50;99.90;;;;;;5093098;28;20508;-62
2022/03/05 07:23:43;;;;;;;14.60;8.32;;;0.50;99.90;;;;;;5076305;28;20037;-62
2022/03/05 07:26:08;;;;;;;13.40;7.03;;;0.60;99.90;;;;;;5092907;28;20555;-63
2022/03/05 07:28:34;;;;;;;12.13;7.32;;;0.80;99.90;;;;;;5094000;28;20036;-63
2022/03/05 07:31:00;;;;;;;13.02;8.13;;;0.80;99.90;;;;;;5094176;28;20036;-61
2022/03/05 07:33:26;;;;;;;14.38;7.35;;;1.00;99.90;;;;;;5093872;28;20460;-62
2022/03/05 07:35:54;;;;;;;13.25;7.70;;;1.20;99.90;;;;;;5094047;28;20036;-62
2022/03/05 07:38:19;;;;;;;13.70;7.97;;;1.30;99.90;;;;;;5093973;28;20053;-62
2022/03/05 07:40:45;;;;;;;9.80;7.20;;;1.50;99.90;;;;;;5093911;28;20036;-62
2022/03/05 07:43:12;;;;;;;12.50;7.78;;;1.80;99.90;;;;;;5094021;28;20238;-62
2022/03/05 07:45:38;;;;;;;16.48;8.48;;;2.20;99.90;;;;;;5075914;28;20039;-62
2022/03/05 07:48:04;;;;;;;12.68;7.72;;;2.30;99.90;;;;;;5092658;28;20089;-62
2022/03/05 07:50:31;;;;;;;14.02;8.57;;;2.70;99.90;;;;;;5093789;28;20093;-62
2022/03/05 07:52:57;;;;;;;16.25;8.15;;;2.90;99.90;;;;;;5093632;28;20470;-62
2022/03/05 07:55:22;;;;;;;16.02;8.25;;;3.20;99.90;;;;;;5093599;28;20080;-62
2022/03/05 07:57:48;;;;;;;16.15;8.98;;;3.60;99.90;;;;;;5093536;28;20119;-62
2022/03/05 08:00:15;;;;;;;12.07;8.07;;;3.80;99.90;;;;;;5093607;28;20367;-60
2022/03/05 08:02:41;;;;;;;10.65;7.53;;;4.00;99.90;;;;;;5074649;28;20040;-60
2022/03/05 08:05:07;;;;;;;11.55;7.78;;;4.20;99.90;;;;;;5093298;28;20044;-60
2022/03/05 08:07:32;;;;;;;11.80;7.93;;;4.50;99.90;;;;;;5093494;28;20390;-59
2022/03/05 08:09:58;;;;;;;15.75;7.63;;;4.80;99.90;;;;;;5093169;28;20036;-60
2022/03/05 08:12:23;;;;;;;10.98;7.78;;;4.80;99.90;;;;;;5093131;28;20042;-60
2022/03/05 08:14:49;;;;;;;12.80;8.60;;;5.10;99.90;;;;;;5093312;28;20443;-61
2022/03/05 08:17:15;;;;;;;11.52;7.90;;;5.30;99.90;;;;;;5093369;28;20082;-60
2022/03/05 08:19:41;;;;;;;12.25;8.32;;;5.60;99.90;;;;;;5093056;28;20043;-59
2022/03/05 08:22:07;;;;;;;12.23;7.93;;;5.60;99.90;;;;;;5092969;28;20052;-59
2022/03/05 08:24:33;;;;;;;13.68;8.93;;;5.80;99.90;;;;;;5092989;28;20051;-59
2022/03/05 08:26:58;;;;;;;13.77;9.10;;;6.00;99.90;;;;;;5092891;28;20032;-60
2022/03/05 08:29:24;;;;;;;13.93;8.93;;;6.00;99.90;;;;;;5093278;28;20375;-60
2022/03/05 08:31:50;;;;;;;14.23;9.43;;;6.10;99.90;;;;;;5091773;28;20137;-59
2022/03/05 08:34:16;;;;;;;12.02;8.07;;;6.30;99.90;;;;;;5092964;28;20044;-59
2022/03/05 08:36:42;;;;;;;13.63;8.35;;;6.40;99.90;;;;;;5092854;28;20390;-59
2022/03/05 08:39:08;;;;;;;11.85;7.70;;;6.40;99.90;;;;;;5092618;28;20040;-59
2022/03/05 08:41:34;;;;;;;14.70;8.75;;;6.40;99.90;;;;;;5092571;28;20032;-59
2022/03/05 08:43:59;;;;;;;14.95;8.38;;;6.50;99.90;;;;;;5092844;28;20032;-59
2022/03/05 08:46:25;;;;;;;13.48;8.07;;;6.70;99.90;;;;;;5092697;28;20161;-59
2022/03/05 08:48:51;;;;;;;12.43;7.78;;;7.00;99.90;;;;;;5092521;28;20040;-59
2022/03/05 08:51:17;;;;;;;11.20;8.13;;;7.20;99.90;;;;;;5092589;28;20039;-59
2022/03/05 08:53:42;;;;;;;16.10;8.45;;;7.20;99.90;;;;;;5092509;28;20035;-59
2022/03/05 08:56:08;;;;;;;12.60;8.63;;;7.10;99.90;;;;;;5092293;28;20063;-60
2022/03/05 08:58:34;;;;;;;12.77;8.63;;;7.60;99.90;;;;;;5092568;28;20117;-59
2022/03/05 09:01:01;;;;;;;14.00;8.82;;;7.60;99.90;;;;;;5092179;28;20082;-59
2022/03/05 09:03:27;;;;;;;11.88;8.57;;;7.80;99.90;;;;;;5091003;28;20039;-59
2022/03/05 09:05:53;;;;;;;15.45;8.63;;;7.80;99.90;;;;;;5090436;28;20044;-60
2022/03/05 09:08:19;;;;;;;14.48;9.23;;;7.90;99.90;;;;;;5089726;28;20047;-59
2022/03/05 09:10:46;;;;;;;11.25;8.15;;;7.90;99.90;;;;;;5092102;28;20463;-59
2022/03/05 09:13:11;;;;;;;13.05;8.25;;;8.30;99.90;;;;;;5092338;28;20036;-59
2022/03/05 09:15:38;;;;;;;15.57;8.70;;;8.30;99.90;;;;;;5092234;28;20038;-59
2022/03/05 09:18:04;;;;;;;13.38;9.38;;;8.60;99.90;;;;;;5092060;28;20048;-59
2022/03/05 09:20:30;;;;;;;14.85;9.07;;;8.40;99.90;;;;;;5091215;28;20127;-60
2022/03/05 09:22:56;;;;;;;12.93;9.13;;;8.70;99.90;;;;;;5091959;28;20179;-59
2022/03/05 09:25:22;;;;;;;15.50;10.60;;;8.10;99.90;;;;;;5092595;28;20114;-59
2022/03/05 09:27:47;;;;;;;15.23;9.73;;;8.00;99.90;;;;;;5092154;28;20036;-59
2022/03/05 09:30:13;;;;;;;13.85;9.80;;;7.90;99.90;;;;;;5092124;28;20040;-59
2022/03/05 09:32:39;;;;;;;16.48;9.88;;;8.00;99.90;;;;;;5091973;28;20050;-59
2022/03/05 09:35:06;;;;;;;16.13;10.35;;;7.70;99.90;;;;;;5091816;28;20114;-60
2022/03/05 09:37:33;;;;;;;15.73;10.80;;;7.50;99.90;;;;;;5091812;28;20071;-60
2022/03/05 09:39:59;;;;;;;14.55;9.90;;;7.30;99.90;;;;;;5091671;28;20047;-60
2022/03/05 09:42:25;;;;;;;15.45;11.10;;;7.30;99.90;;;;;;5091935;28;20085;-59
2022/03/05 09:44:52;;;;;;;17.02;10.32;;;7.10;99.90;;;;;;5091276;28;20096;-59
2022/03/05 09:47:18;;;;;;;18.60;11.05;;;7.10;99.90;;;;;;5091832;28;20035;-59
2022/03/05 09:49:44;;;;;;;14.80;9.82;;;7.10;99.90;;;;;;5091631;28;20039;-60
2022/03/05 09:52:09;;;;;;;17.58;11.35;;;7.10;99.90;;;;;;5091679;28;20036;-59
2022/03/05 09:54:37;;;;;;;16.70;11.50;;;7.30;99.90;;;;;;5091754;28;20042;-59
2022/03/05 09:57:12;;;;;;;17.02;10.75;;;7.30;99.90;;;;;;5091686;28;20032;-59
2022/03/05 09:59:38;;;;;;;15.95;10.48;;;6.90;99.90;;;;;;5091734;28;20036;-59
2022/03/05 10:02:05;;;;;;;14.80;9.77;;;6.90;99.90;;;;;;5089859;28;20513;-59
2022/03/05 10:04:31;;;;;;;18.27;11.18;;;7.00;99.90;;;;;;5091463;28;20040;-59
2022/03/05 10:07:18;;;;;;;17.05;10.10;;;6.80;99.90;;;;;;5091548;28;20161;-59
2022/03/05 10:09:48;;;;;;;19.40;10.70;;;7.10;99.90;;;;;;5091490;28;20478;-59
2022/03/05 10:12:31;;;;;;;14.45;9.85;;;7.20;99.90;;;;;;5091279;28;20516;-59
2022/03/05 10:15:05;;;;;;;20.35;10.70;;;7.30;99.90;;;;;;5090317;28;20048;-59
2022/03/05 10:17:49;;;;;;;16.58;10.95;;;7.30;99.90;;;;;;5090904;28;20684;-59
2022/03/05 10:20:16;;;;;;;19.95;11.38;;;7.40;99.90;;;;;;5091627;28;20044;-59
2022/03/05 10:23:03;;;;;;;19.17;11.45;;;7.40;99.90;;;;;;5091090;28;20044;-59
2022/03/05 10:25:33;;;;;;;16.52;11.05;;;7.10;99.90;;;;;;5091306;28;20036;-59
2022/03/05 10:28:14;;;;;;;17.70;11.00;;;7.10;99.90;;;;;;5091603;28;20032;-59
2022/03/05 10:30:44;;;;;;;17.23;11.50;;;7.30;99.90;;;;;;5091526;28;20073;-59
2022/03/05 10:33:30;;;;;;;19.30;11.65;;;7.50;99.90;;;;;;5091415;28;20040;-59
2022/03/05 10:35:58;;;;;;;16.67;10.80;;;7.70;99.90;;;;;;5091326;28;20377;-60
2022/03/05 10:38:25;;;;;;;18.60;11.10;;;7.80;99.90;;;;;;5091274;28;20479;-60
2022/03/05 10:40:56;;;;;;;15.68;11.27;;;7.90;99.90;;;;;;5091264;28;20067;-59
2022/03/05 10:43:23;;;;;;;19.38;11.32;;;8.10;99.90;;;;;;5091299;28;20432;-60
2022/03/05 10:45:49;;;;;;;16.67;10.90;;;8.20;99.90;;;;;;5090253;28;20047;-59
2022/03/05 10:48:43;;;;;;;15.75;11.13;;;7.70;99.90;;;;;;5091174;28;20040;-60
2022/03/05 10:51:14;;;;;;;18.98;10.85;;;7.90;99.90;;;;;;5088724;28;20052;-59
2022/03/05 10:53:48;;;;;;;19.98;11.52;;;7.60;99.90;;;;;;5091151;28;20047;-59
2022/03/05 10:56:26;;;;;;;19.33;12.25;;;7.90;99.90;;;;;;5091808;28;20071;-59
2022/03/05 10:59:11;;;;;;;18.15;10.98;;;8.00;99.90;;;;;;5094661;28;20047;-59
2022/03/05 11:01:39;;;;;;;19.15;12.07;;;8.00;99.90;;;;;;5094833;28;20051;-59
2022/03/05 11:04:06;;;;;;;18.33;11.55;;;8.00;99.90;;;;;;5094979;28;20040;-59
2022/03/05 11:06:37;;;;;;;17.38;11.77;;;8.20;99.90;;;;;;5094924;28;20456;-60
2022/03/05 11:09:04;;;;;;;16.70;11.60;;;8.30;99.90;;;;;;5093229;28;20072;-59
2022/03/05 11:11:31;;;;;;;18.02;11.55;;;8.00;99.90;;;;;;5094358;28;20047;-60
2022/03/05 11:13:58;;;;;;;16.83;11.15;;;8.10;99.90;;;;;;5093121;28;20044;-59
2022/03/05 11:16:25;;;;;;;17.58;11.23;;;8.10;99.90;;;;;;5094467;28;20436;-59
2022/03/05 11:18:51;;;;;;;20.98;12.15;;;8.30;99.90;;;;;;5094601;28;20035;-59
2022/03/05 11:21:18;;;;;;;17.77;11.18;;;8.40;99.90;;;;;;5094100;28;20050;-59
2022/03/05 11:23:44;;;;;;;16.65;11.52;;;8.70;99.90;;;;;;5092997;28;20067;-59
2022/03/05 11:26:11;;;;;;;17.83;11.02;;;8.80;99.90;;;;;;5094383;28;20490;-59
2022/03/05 11:28:46;;;;;;;19.23;10.57;;;9.00;99.90;;;;;;5094369;28;20040;-59
2022/03/05 11:31:32;;;;;;;19.27;12.13;;;9.00;99.90;;;;;;5094325;28;20047;-59
2022/03/05 11:34:14;;;;;;;20.77;12.20;;;8.70;99.90;;;;;;5093985;28;20039;-59
2022/03/05 11:36:41;;;;;;;21.42;11.95;;;8.90;99.90;;;;;;5094287;28;20067;-59
2022/03/05 11:39:18;;;;;;;19.13;12.57;;;8.90;99.90;;;;;;5094071;28;20036;-59
2022/03/05 11:41:48;;;;;;;18.73;12.75;;;8.60;99.90;;;;;;5092580;28;20051;-59
2022/03/05 11:44:16;;;;;;;22.83;14.30;;;8.80;99.90;;;;;;5093968;28;20032;-59
2022/03/05 11:46:42;;;;;;;23.27;14.10;;;9.00;99.90;;;;;;5093823;28;20111;-58
2022/03/05 11:49:11;;;;;;;21.92;14.10;;;9.10;99.90;;;;;;5093712;28;20446;-58
2022/03/05 11:51:57;;;;;;;22.40;12.95;;;9.20;99.90;;;;;;5094082;28;20386;-59
2022/03/05 11:54:24;;;;;;;18.55;12.05;;;9.30;99.90;;;;;;5093776;28;20040;-59
2022/03/05 11:57:11;;;;;;;16.80;12.13;;;9.20;99.90;;;;;;5093553;28;20122;-59
2022/03/05 11:59:38;;;;;;;18.15;11.90;;;9.40;99.90;;;;;;5093781;28;20120;-58
2022/03/05 12:02:05;;;;;;;20.50;13.40;;;9.50;99.90;;;;;;5093711;28;20082;-59
2022/03/05 12:04:31;;;;;;;17.30;12.25;;;9.70;99.90;;;;;;5093463;28;20040;-59
2022/03/05 12:07:03;;;;;;;16.17;11.63;;;10.00;99.90;;;;;;5091942;28;20048;-59
2022/03/05 12:09:52;;;;;;;19.25;13.32;;;9.60;99.90;;;;;;5091844;28;20055;-59
2022/03/05 12:12:18;;;;;;;21.13;13.68;;;9.80;99.90;;;;;;5092876;28;20052;-59
2022/03/05 12:15:03;;;;;;;18.17;13.93;;;9.80;99.90;;;;;;5091356;28;20059;-59
2022/03/05 12:17:39;;;;;;;19.27;13.57;;;9.80;99.90;;;;;;5093295;28;20051;-59
2022/03/05 12:20:11;;;;;;;18.55;12.75;;;9.90;99.90;;;;;;5093086;28;20044;-59
2022/03/05 12:22:45;;;;;;;21.88;14.60;;;10.20;99.90;;;;;;5093052;28;20389;-59
2022/03/05 12:25:11;;;;;;;19.65;13.27;;;10.60;99.90;;;;;;5093189;28;20048;-59
2022/03/05 12:27:43;;;;;;;18.88;13.15;;;10.40;99.90;;;;;;5092779;28;20038;-58
2022/03/05 12:30:11;;;;;;;17.33;12.55;;;10.40;99.90;;;;;;5093317;28;20079;-58
2022/03/05 12:32:39;;;;;;;18.75;12.43;;;10.40;99.90;;;;;;5093031;28;20618;-58
2022/03/05 12:35:08;;;;;;;18.92;13.10;;;10.40;99.90;;;;;;5093370;28;20838;-58
2022/03/05 12:37:35;;;;;;;22.13;14.43;;;10.30;99.90;;;;;;5092873;28;20079;-58
2022/03/05 12:40:03;;;;;;;21.58;14.35;;;10.20;99.90;;;;;;5092900;28;20062;-58
2022/03/05 12:42:55;;;;;;;23.05;17.20;;;10.30;99.90;;;;;;5092591;28;20046;-58